Share

Jackson, KY

Carroll (KJKL) Elev 1381 ft | 37.59 °N, 83.31 °W | Change Station

Current weather conditions updated 1 hour ago

Clear
Clear
61 °F
Feels Like 61 °F
N
4
Wind Variable Wind from South
Sunrise 6:50 AM
Sunset 8:14 PM
Moon Waning Gibbous

Today is forecast to be nearly the same temperature as yesterday. Chance of late night showers tonight.

Pressure 30.10 in
Visibility 10.0 miles
Clouds Clear
Dew Point 34 °F
Humidity 36%
Rainfall 0.00 in
Snow Depth Not available.
UV 2 out of 16
Pollen 10.40 out of 12
Air Quality Not available.
Flu Activity Sporadic
METAR KJKL 211253Z AUTO 19003KT 10SM CLR 16/01 A3013 RMK AO2 SLP192 T01610011

More Conditions Fewer Conditions

Pressure 30.10 in
Visibility 10.0 miles
Clouds Clear
Dew Point 34 °F
Humidity 36%
Rainfall 0.00 in
Snow Depth Not available.
UV 2 out of 16
Pollen 10.40 out of 12
Air Quality Not available.
Flu Activity Sporadic
METAR KJKL 211253Z AUTO 19003KT 10SM CLR 16/01 A3013 RMK AO2 SLP192 T01610011

More Conditions Fewer Conditions

10-Day Weather Forecast

Almanac

Astronomy

Apr. 21, 2014 Rise Set
Actual Time 6:50 AM EDT 8:14 PM EDT
Civil Twilight 6:23 AM EDT 8:41 PM EDT
Nautical Twilight 5:50 AM EDT 9:14 PM EDT
Astronomical Twilight 5:15 AM EDT 9:49 PM EDT
Moon 1:41 AM EDT 12:17 PM EDT
Length of Visible Light 14h 18m
Length of Day
13h 23m
Tomorrow will be 2m 14s longer.
Waning Gibbous, 59% of the Moon is Illuminated
Today
Waning Gibbous
Apr 22
Last Quarter
Apr 29
New
May 6
First Quarter
May 14
Full

Today's Extremes

State Highs State Lows

Community

  • Bright Eyes
    Bright Eyes
  • Snowy Robin
    Snowy Robin
  • Sun Pillar and Geese
    Sun Pillar and Geese
  • Showers on the Way
    Showers on the Way
  • Easter Morning Fog
    Easter Morning Fog

WunderPhotos

Upload Photos

1,703,621 photos uploaded!

Nearby

Snow Depth

Station Depth Elevation
No new snow has been reported.

Coastal Water Temperatures

Place Temperature
No Stations Reporting

Earthquake Activity

City Distance Mag. Time & Date
No recent earthquake activity has been reported nearby.
Minimum magnitude displayed is 2.5.

Nearby Weather Stations

Station Location Temp. Dew Point Humidity Wind Precip. Elev Updated Type
RAWS JACKSON CO AP KY, Jackson, KY 60 °F 37 °F 42% SSE  at  1 mph 0.00 in / hr 1388 ft 8:15 AM EDT MADIS
Talbert, KY 64.5 °F 44 °F 47% North  at  0.0 mph 0.00 in / hr 994 ft 9:55 AM EDT Normal
RAWS KOOMER KY, Pine Ridge, KY 63 °F 43 °F 48% SSW  at  5 mph 0.00 in / hr 1299 ft 9:09 AM EDT MADIS

Show More Stations Show Fewer Stations

What do you think?

We're not finished. Please let us know what you like, what you don't like, and what you are still missing.